Time;durP1;ratioP1;P1;durP2;ratioP2;P2;SDS_P1;SDS_P2;PMS_P1;PMS_P2;Temp;Humidity;BMP_temperature;BMP_pressure;BME280_temperature;BME280_humidity;BME280_pressure;Samples;Min_cycle;Max_cycle;Signal;HPM_P1;HPM_P2
2024/02/08 00:02:09;;;;;;;18.33;7.40;;;;;;;;;;5076659;28;20058;-29
2024/02/08 00:04:37;;;;;;;16.95;6.90;;;;;;;;;;5075860;28;20251;-29
2024/02/08 00:07:02;;;;;;;16.80;6.88;;;;;;;;;;5076009;28;20032;-30
2024/02/08 00:09:27;;;;;;;20.02;6.63;;;;;;;;;;5075991;28;20016;-30
2024/02/08 00:11:52;;;;;;;16.00;6.45;;;;;;;;;;5074841;28;20023;-29
2024/02/08 00:14:17;;;;;;;17.40;6.38;;;;;;;;;;5075837;28;20070;-29
2024/02/08 00:16:43;;;;;;;16.90;6.97;;;;;;;;;;5075857;28;20017;-29
2024/02/08 00:19:08;;;;;;;22.88;7.90;;;;;;;;;;5075765;28;20250;-29
2024/02/08 00:21:35;;;;;;;21.35;7.70;;;;;;;;;;5076039;28;20481;-28
2024/02/08 00:24:00;;;;;;;20.33;7.57;;;;;;;;;;5075714;28;20012;-28
2024/02/08 00:26:25;;;;;;;23.98;7.60;;;;;;;;;;5076241;28;20103;-28
2024/02/08 00:28:50;;;;;;;18.05;6.78;;;;;;;;;;5075613;28;20025;-28
2024/02/08 00:31:16;;;;;;;17.95;6.82;;;;;;;;;;5075621;28;20455;-28
2024/02/08 00:33:41;;;;;;;18.08;6.38;;;;;;;;;;5075472;28;20472;-28
2024/02/08 00:36:09;;;;;;;20.42;6.85;;;;;;;;;;5075951;28;20025;-28
2024/02/08 00:38:36;;;;;;;13.68;6.03;;;;;;;;;;5075747;28;20013;-28
2024/02/08 00:41:01;;;;;;;20.75;6.18;;;;;;;;;;5075828;28;20014;-29
2024/02/08 00:43:27;;;;;;;17.92;6.63;;;;;;;;;;5076280;28;20436;-28
2024/02/08 00:45:54;;;;;;;16.03;6.70;;;;;;;;;;5075854;28;20028;-28
2024/02/08 00:48:21;;;;;;;14.93;6.47;;;;;;;;;;5075491;28;20297;-28
2024/02/08 00:50:47;;;;;;;16.20;6.68;;;;;;;;;;5075495;28;20028;-28
2024/02/08 00:53:12;;;;;;;12.82;6.13;;;;;;;;;;5075679;28;20021;-29
2024/02/08 00:55:37;;;;;;;12.27;6.27;;;;;;;;;;5075531;28;20063;-28
2024/02/08 00:58:02;;;;;;;16.50;5.93;;;;;;;;;;5073790;28;20270;-28
2024/02/08 01:00:28;;;;;;;14.57;5.57;;;;;;;;;;5075013;28;20025;-28
2024/02/08 01:02:53;;;;;;;13.32;5.53;;;;;;;;;;5074905;28;20016;-29
2024/02/08 01:05:20;;;;;;;14.50;5.53;;;;;;;;;;5074104;28;20416;-28
2024/02/08 01:07:46;;;;;;;19.17;6.20;;;;;;;;;;5074837;28;20078;-28
2024/02/08 01:10:11;;;;;;;13.75;5.38;;;;;;;;;;5075382;28;20024;-29
2024/02/08 01:12:36;;;;;;;13.82;6.03;;;;;;;;;;5074951;28;20066;-28
2024/02/08 01:15:02;;;;;;;11.60;5.65;;;;;;;;;;5074933;28;20424;-28
2024/02/08 01:17:27;;;;;;;22.40;5.82;;;;;;;;;;5074842;28;20039;-29
2024/02/08 01:19:53;;;;;;;13.40;5.88;;;;;;;;;;5074872;28;20120;-28
2024/02/08 01:22:20;;;;;;;16.15;5.65;;;;;;;;;;5074460;28;20012;-28
2024/02/08 01:24:48;;;;;;;13.77;5.78;;;;;;;;;;5075023;28;20036;-28
2024/02/08 01:27:13;;;;;;;13.68;5.15;;;;;;;;;;5074689;28;20048;-28
2024/02/08 01:29:38;;;;;;;15.82;5.75;;;;;;;;;;5074351;28;20051;-29
2024/02/08 01:32:03;;;;;;;18.63;5.77;;;;;;;;;;5074846;28;20032;-28
2024/02/08 01:34:29;;;;;;;14.27;5.95;;;;;;;;;;5074527;28;20614;-28
2024/02/08 01:36:54;;;;;;;18.55;5.50;;;;;;;;;;5074480;28;20020;-28
2024/02/08 01:39:22;;;;;;;14.82;5.65;;;;;;;;;;5074787;28;20402;-28
2024/02/08 01:41:51;;;;;;;14.90;5.60;;;;;;;;;;5074502;28;20095;-28
2024/02/08 01:44:16;;;;;;;14.77;5.80;;;;;;;;;;5074691;28;20035;-28
2024/02/08 01:46:42;;;;;;;15.00;5.23;;;;;;;;;;5074602;28;20021;-29
2024/02/08 01:49:08;;;;;;;14.68;5.07;;;;;;;;;;5074054;28;20341;-28
2024/02/08 01:51:34;;;;;;;14.35;5.07;;;;;;;;;;5074473;28;20452;-28
2024/02/08 01:54:01;;;;;;;12.02;5.38;;;;;;;;;;5073943;28;20017;-28
2024/02/08 01:56:27;;;;;;;18.85;5.57;;;;;;;;;;5073945;28;20031;-28
2024/02/08 01:58:52;;;;;;;14.00;5.10;;;;;;;;;;5073864;28;20368;-28
2024/02/08 02:01:17;;;;;;;11.63;5.00;;;;;;;;;;5074323;28;20070;-29
2024/02/08 02:03:43;;;;;;;16.80;5.25;;;;;;;;;;5074134;28;20070;-28
2024/02/08 02:06:08;;;;;;;13.35;5.22;;;;;;;;;;5073545;28;20056;-30
2024/02/08 02:08:33;;;;;;;12.82;5.30;;;;;;;;;;5073983;28;20035;-29
2024/02/08 02:10:59;;;;;;;13.75;5.82;;;;;;;;;;5073862;28;20413;-28
2024/02/08 02:13:24;;;;;;;12.55;5.32;;;;;;;;;;5074262;28;20069;-28
2024/02/08 02:15:51;;;;;;;13.02;4.80;;;;;;;;;;5073497;28;20077;-28
2024/02/08 02:18:17;;;;;;;17.58;5.07;;;;;;;;;;5073628;28;20088;-28
2024/02/08 02:20:42;;;;;;;19.02;5.38;;;;;;;;;;5073531;28;20023;-29
2024/02/08 02:23:09;;;;;;;16.30;5.60;;;;;;;;;;5074102;28;20016;-28
2024/02/08 02:25:35;;;;;;;15.20;4.82;;;;;;;;;;5073792;28;20750;-29
2024/02/08 02:28:03;;;;;;;20.77;5.78;;;;;;;;;;5073728;28;20013;-28
2024/02/08 02:30:29;;;;;;;16.10;5.22;;;;;;;;;;5073677;28;20032;-29
2024/02/08 02:32:56;;;;;;;17.13;5.55;;;;;;;;;;5073969;28;20058;-29
2024/02/08 02:35:22;;;;;;;15.90;5.00;;;;;;;;;;5073601;28;20388;-28
2024/02/08 02:37:49;;;;;;;19.00;5.90;;;;;;;;;;5073391;28;20051;-29
2024/02/08 02:40:24;;;;;;;17.65;6.10;;;;;;;;;;5073635;28;20436;-28
2024/02/08 02:42:51;;;;;;;16.90;5.38;;;;;;;;;;5073359;28;20103;-28
2024/02/08 02:45:21;;;;;;;12.52;5.25;;;;;;;;;;5073580;28;20046;-29
2024/02/08 02:47:47;;;;;;;16.10;5.85;;;;;;;;;;5073229;28;20073;-28
2024/02/08 02:50:16;;;;;;;17.70;5.80;;;;;;;;;;5073473;28;20104;-29
2024/02/08 02:52:42;;;;;;;18.10;5.80;;;;;;;;;;5073513;28;20023;-28
2024/02/08 02:55:09;;;;;;;16.10;5.50;;;;;;;;;;5071869;28;20025;-28
2024/02/08 02:57:35;;;;;;;14.18;5.35;;;;;;;;;;5073180;28;20021;-28
2024/02/08 03:00:14;;;;;;;20.00;5.30;;;;;;;;;;5073674;28;20470;-28
2024/02/08 03:02:39;;;;;;;16.17;5.32;;;;;;;;;;5073121;28;20016;-28
2024/02/08 03:05:06;;;;;;;15.67;6.07;;;;;;;;;;5073085;28;20048;-28
2024/02/08 03:07:31;;;;;;;17.60;5.70;;;;;;;;;;5072959;28;20274;-29
2024/02/08 03:09:57;;;;;;;21.23;5.63;;;;;;;;;;5073083;28;20020;-29
2024/02/08 03:12:22;;;;;;;15.27;6.05;;;;;;;;;;5072970;28;20460;-29
2024/02/08 03:14:57;;;;;;;12.05;5.82;;;;;;;;;;5073561;28;20062;-30
2024/02/08 03:17:22;;;;;;;18.95;5.90;;;;;;;;;;5071722;28;20024;-29
2024/02/08 03:19:47;;;;;;;14.55;5.63;;;;;;;;;;5073271;28;20379;-30
2024/02/08 03:22:13;;;;;;;15.83;5.67;;;;;;;;;;5072966;28;20044;-29
2024/02/08 03:24:38;;;;;;;20.95;6.55;;;;;;;;;;5073454;28;20638;-29
2024/02/08 03:27:05;;;;;;;17.35;6.05;;;;;;;;;;5073425;28;20016;-29
2024/02/08 03:29:30;;;;;;;15.20;6.07;;;;;;;;;;5075175;28;20019;-29
2024/02/08 03:31:55;;;;;;;17.50;6.23;;;;;;;;;;5076682;28;20013;-30
2024/02/08 03:34:23;;;;;;;21.10;6.53;;;;;;;;;;5076931;28;20255;-29
2024/02/08 03:36:49;;;;;;;19.35;7.15;;;;;;;;;;5076798;28;20020;-29
2024/02/08 03:39:24;;;;;;;13.23;5.97;;;;;;;;;;5076764;28;20394;-36
2024/02/08 03:41:51;;;;;;;21.08;6.07;;;;;;;;;;5076753;28;20027;-29
2024/02/08 03:44:16;;;;;;;15.55;6.03;;;;;;;;;;5076726;28;20012;-29
2024/02/08 03:46:42;;;;;;;15.82;6.00;;;;;;;;;;5076984;28;20013;-29
2024/02/08 03:49:08;;;;;;;14.83;6.30;;;;;;;;;;5076941;28;20023;-29
2024/02/08 03:51:37;;;;;;;20.85;6.82;;;;;;;;;;5076588;28;20338;-29
2024/02/08 03:54:03;;;;;;;14.35;6.50;;;;;;;;;;5076609;28;20020;-29
2024/02/08 03:56:36;;;;;;;13.82;6.47;;;;;;;;;;5076410;28;20460;-29
2024/02/08 03:59:07;;;;;;;20.50;6.45;;;;;;;;;;5076439;28;20016;-30
2024/02/08 04:01:32;;;;;;;20.83;6.97;;;;;;;;;;5076435;28;20017;-29
2024/02/08 04:04:11;;;;;;;17.73;8.13;;;;;;;;;;5076384;28;20069;-29
2024/02/08 04:06:37;;;;;;;21.63;7.93;;;;;;;;;;5075922;28;20048;-29
2024/02/08 04:55:19;;;;;;;16.83;7.43;;;;;;;;;;5073390;28;20551;-28
2024/02/08 04:57:44;;;;;;;20.00;7.47;;;;;;;;;;5073129;28;20020;-29
2024/02/08 05:00:12;;;;;;;17.57;7.40;;;;;;;;;;5074678;28;20319;-29
2024/02/08 05:02:38;;;;;;;20.00;7.50;;;;;;;;;;5075122;28;20273;-28
2024/02/08 05:05:06;;;;;;;19.48;7.80;;;;;;;;;;5074657;28;20036;-28
2024/02/08 05:07:32;;;;;;;19.27;7.60;;;;;;;;;;5075165;28;20483;-28
2024/02/08 05:09:58;;;;;;;17.27;7.15;;;;;;;;;;5075087;28;20017;-29
2024/02/08 05:12:24;;;;;;;28.10;7.90;;;;;;;;;;5073378;28;20028;-29
2024/02/08 05:14:49;;;;;;;22.33;7.75;;;;;;;;;;5075224;28;20478;-28
2024/02/08 05:17:14;;;;;;;18.50;7.60;;;;;;;;;;5074668;28;20448;-28
2024/02/08 05:19:43;;;;;;;20.30;7.40;;;;;;;;;;5075085;28;20266;-28
2024/02/08 05:22:11;;;;;;;18.88;7.40;;;;;;;;;;5073190;28;20274;-28
2024/02/08 05:24:36;;;;;;;22.33;8.07;;;;;;;;;;5074567;28;20103;-28
2024/02/08 05:27:02;;;;;;;20.70;7.88;;;;;;;;;;5074815;28;20420;-29
2024/02/08 05:29:28;;;;;;;18.35;7.50;;;;;;;;;;5074736;28;20077;-28
2024/02/08 05:31:53;;;;;;;20.92;7.32;;;;;;;;;;5073152;28;20107;-28
2024/02/08 05:34:21;;;;;;;16.92;7.63;;;;;;;;;;5073045;28;20466;-29
2024/02/08 05:36:48;;;;;;;17.17;8.02;;;;;;;;;;5074164;28;20024;-28
2024/02/08 05:39:14;;;;;;;21.90;8.20;;;;;;;;;;5074547;28;20025;-28
2024/02/08 05:41:44;;;;;;;15.50;7.32;;;;;;;;;;5074552;28;20024;-30
2024/02/08 05:44:09;;;;;;;20.40;7.25;;;;;;;;;;5074406;28;20019;-28
2024/02/08 05:46:40;;;;;;;21.10;7.82;;;;;;;;;;5074124;28;20024;-29
2024/02/08 05:49:11;;;;;;;21.85;7.55;;;;;;;;;;5074370;28;20070;-29
2024/02/08 05:51:37;;;;;;;19.80;7.53;;;;;;;;;;5073898;28;20075;-28
2024/02/08 05:54:02;;;;;;;16.35;7.35;;;;;;;;;;5073985;28;20016;-28
2024/02/08 05:56:30;;;;;;;16.35;7.10;;;;;;;;;;5074172;28;20108;-28
2024/02/08 05:59:01;;;;;;;21.52;7.60;;;;;;;;;;5073956;28;20019;-29
2024/02/08 06:01:26;;;;;;;16.48;7.10;;;;;;;;;;5074130;28;20482;-28
2024/02/08 06:03:55;;;;;;;15.10;7.57;;;;;;;;;;5074069;28;20073;-28
2024/02/08 06:06:33;;;;;;;17.48;7.55;;;;;;;;;;5073626;28;20094;-29
2024/02/08 06:08:58;;;;;;;24.15;7.70;;;;;;;;;;5073926;28;20436;-28
2024/02/08 06:11:23;;;;;;;18.40;8.00;;;;;;;;;;5072384;28;20020;-28
2024/02/08 06:13:58;;;;;;;25.95;8.38;;;;;;;;;;5073659;28;20250;-28
2024/02/08 06:16:26;;;;;;;20.70;7.72;;;;;;;;;;5073582;28;20111;-28
2024/02/08 06:18:57;;;;;;;25.77;7.53;;;;;;;;;;5073586;28;20020;-28
2024/02/08 06:21:38;;;;;;;15.57;6.97;;;;;;;;;;5073870;28;20017;-28
2024/02/08 06:24:29;;;;;;;17.50;7.57;;;;;;;;;;5073492;28;20027;-28
2024/02/08 06:26:56;;;;;;;21.95;8.15;;;;;;;;;;5073347;28;20028;-28
2024/02/08 06:29:26;;;;;;;23.63;7.33;;;;;;;;;;5073998;28;20031;-28
2024/02/08 06:32:00;;;;;;;19.80;7.43;;;;;;;;;;5073715;28;20266;-28
2024/02/08 06:34:42;;;;;;;20.70;7.35;;;;;;;;;;5073724;28;20383;-28
2024/02/08 06:37:25;;;;;;;21.25;7.25;;;;;;;;;;5073346;28;20077;-28
2024/02/08 06:39:55;;;;;;;21.38;7.38;;;;;;;;;;5073511;28;20464;-29
2024/02/08 06:42:44;;;;;;;22.55;7.25;;;;;;;;;;5073330;28;20028;-28
2024/02/08 07:39:37;;;;;;;14.02;5.10;;;;;;;;;;5077366;28;20062;-28
2024/02/08 07:42:12;;;;;;;15.82;4.57;;;;;;;;;;5076461;28;20028;-29
2024/02/08 07:44:45;;;;;;;19.38;4.72;;;;;;;;;;5076667;28;20103;-29
2024/02/08 07:47:12;;;;;;;14.10;4.15;;;;;;;;;;5076732;28;20013;-29
2024/02/08 07:49:44;;;;;;;15.55;4.93;;;;;;;;;;5076372;28;20066;-28
2024/02/08 07:52:19;;;;;;;14.05;4.60;;;;;;;;;;5076828;28;20078;-30
2024/02/08 07:55:14;;;;;;;19.70;4.82;;;;;;;;;;5076461;28;20044;-31
2024/02/08 07:57:36;;;;;;;17.02;4.82;;;;;;;;;;5076031;28;20375;-30
2024/02/08 08:00:01;;;;;;;15.60;4.20;;;;;;;;;;5076117;28;20016;-30
2024/02/08 08:02:29;;;;;;;14.07;4.13;;;;;;;;;;5076091;28;20324;-29
2024/02/08 08:04:54;;;;;;;25.52;4.90;;;;;;;;;;5076311;28;20274;-29
2024/02/08 08:07:23;;;;;;;14.15;4.35;;;;;;;;;;5076050;28;20027;-29
2024/02/08 08:09:55;;;;;;;14.43;4.28;;;;;;;;;;5076371;28;20023;-29
2024/02/08 08:12:22;;;;;;;13.63;4.35;;;;;;;;;;5075938;28;20455;-29
2024/02/08 08:15:13;;;;;;;14.77;4.18;;;;;;;;;;5075941;28;20035;-29
2024/02/08 08:17:42;;;;;;;15.07;3.67;;;;;;;;;;5075875;28;20069;-30
2024/02/08 08:23:07;;;;;;;9.95;3.35;;;;;;;;;;5075417;28;20068;-30
2024/02/08 08:29:04;;;;;;;12.82;4.03;;;;;;;;;;5075999;28;20553;-29
2024/02/08 08:31:34;;;;;;;19.35;4.13;;;;;;;;;;5071548;28;20032;-29
2024/02/08 08:33:58;;;;;;;11.32;3.10;;;;;;;;;;5075457;28;20548;-30
2024/02/08 08:36:29;;;;;;;13.88;3.33;;;;;;;;;;5075820;28;20107;-29
2024/02/08 08:41:47;;;;;;;11.57;3.15;;;;;;;;;;5076080;28;20023;-30
2024/02/08 08:44:13;;;;;;;20.50;3.28;;;;;;;;;;5075672;28;20017;-29
2024/02/08 08:46:41;;;;;;;20.67;3.40;;;;;;;;;;5075655;28;20016;-30
2024/02/08 08:49:07;;;;;;;10.90;3.35;;;;;;;;;;5075890;28;20091;-30
2024/02/08 08:51:32;;;;;;;20.00;3.88;;;;;;;;;;5075786;28;20471;-30
2024/02/08 08:54:00;;;;;;;11.83;2.87;;;;;;;;;;5075343;28;20020;-29
2024/02/08 08:56:28;;;;;;;20.30;3.83;;;;;;;;;;5075336;28;20271;-28
2024/02/08 08:58:54;;;;;;;13.30;3.20;;;;;;;;;;5075386;28;20096;-29
2024/02/08 09:01:21;;;;;;;12.57;3.53;;;;;;;;;;5074906;28;20479;-29
2024/02/08 09:03:55;;;;;;;11.45;3.00;;;;;;;;;;5074991;28;20451;-28
2024/02/08 09:06:24;;;;;;;11.93;2.83;;;;;;;;;;5074960;28;20052;-28
2024/02/08 09:08:58;;;;;;;18.13;3.03;;;;;;;;;;5073661;28;20016;-29
2024/02/08 09:11:27;;;;;;;11.27;3.30;;;;;;;;;;5074561;28;20024;-28
2024/02/08 09:13:52;;;;;;;14.02;3.40;;;;;;;;;;5075043;28;20025;-28
2024/02/08 09:21:26;;;;;;;10.85;2.78;;;;;;;;;;5074943;28;20028;-29
2024/02/08 09:23:51;;;;;;;14.35;3.20;;;;;;;;;;5074537;28;20044;-28
2024/02/08 09:26:24;;;;;;;12.55;3.25;;;;;;;;;;5072526;28;20016;-30
2024/02/08 09:28:50;;;;;;;14.40;3.27;;;;;;;;;;5074749;28;20357;-29
2024/02/08 09:31:17;;;;;;;14.32;3.33;;;;;;;;;;5074604;28;20055;-29
2024/02/08 09:34:36;;;;;;;10.25;3.45;;;;;;;;;;5073686;28;20024;-29
2024/02/08 09:36:33;;;;;;;17.00;4.38;;;;;;;;;;5073801;28;20426;-29
2024/02/08 09:41:47;;;;;;;20.15;4.07;;;;;;;;;;5074517;28;20494;-29
2024/02/08 09:44:13;;;;;;;12.00;3.38;;;;;;;;;;5073034;28;20059;-33
2024/02/08 09:49:13;;;;;;;15.07;3.42;;;;;;;;;;5074146;28;20090;-29
2024/02/08 09:51:52;;;;;;;13.50;3.08;;;;;;;;;;5074339;28;20028;-29
2024/02/08 09:54:28;;;;;;;24.20;11.00;;;;;;;;;;5074015;28;20471;-29
2024/02/08 09:57:01;;;;;;;14.02;3.40;;;;;;;;;;5072655;28;20387;-29
2024/02/08 10:02:32;;;;;;;15.88;3.55;;;;;;;;;;5073126;28;20540;-28
2024/02/08 10:04:58;;;;;;;12.23;3.00;;;;;;;;;;5073355;28;20064;-29
2024/02/08 10:07:34;;;;;;;15.90;3.17;;;;;;;;;;5073641;28;20063;-29
2024/02/08 10:10:14;;;;;;;14.73;3.50;;;;;;;;;;5073560;28;20017;-28
2024/02/08 10:12:53;;;;;;;16.48;3.20;;;;;;;;;;5072981;28;20024;-29
2024/02/08 10:15:25;;;;;;;14.57;3.25;;;;;;;;;;5072616;28;20025;-29
2024/02/08 10:18:02;;;;;;;16.42;3.78;;;;;;;;;;5072817;28;20012;-29
2024/02/08 10:20:45;;;;;;;13.30;2.92;;;;;;;;;;5072648;28;20013;-29
2024/02/08 10:23:36;;;;;;;14.55;3.53;;;;;;;;;;5073551;28;20038;-29
2024/02/08 10:26:19;;;;;;;15.10;3.13;;;;;;;;;;5073717;28;20024;-29
2024/02/08 10:28:51;;;;;;;12.90;3.00;;;;;;;;;;5073915;28;20095;-30
2024/02/08 10:31:22;;;;;;;12.00;3.33;;;;;;;;;;5073578;28;20028;-29
2024/02/08 10:33:48;;;;;;;18.55;3.33;;;;;;;;;;5073857;28;20336;-29
2024/02/08 10:36:21;;;;;;;10.73;3.03;;;;;;;;;;5073560;28;20055;-29
2024/02/08 10:38:55;;;;;;;12.32;3.65;;;;;;;;;;5073239;28;20017;-29
2024/02/08 10:41:28;;;;;;;9.68;3.20;;;;;;;;;;5073476;28;20023;-29
2024/02/08 10:43:57;;;;;;;17.25;3.42;;;;;;;;;;5073713;28;20133;-29
2024/02/08 10:46:23;;;;;;;14.00;3.08;;;;;;;;;;5073351;28;20020;-29
2024/02/08 10:48:49;;;;;;;10.75;3.38;;;;;;;;;;5071903;28;20040;-29
2024/02/08 10:51:25;;;;;;;13.60;3.80;;;;;;;;;;5073783;28;20390;-29
2024/02/08 10:54:04;;;;;;;19.17;3.92;;;;;;;;;;5073524;28;20031;-29
2024/02/08 10:57:06;;;;;;;14.18;3.75;;;;;;;;;;5072376;28;20028;-29
2024/02/08 10:59:47;;;;;;;16.48;4.35;;;;;;;;;;5059556;28;20383;-29
2024/02/08 11:05:45;;;;;;;13.02;4.05;;;;;;;;;;5071599;28;20105;-29
2024/02/08 11:08:13;;;;;;;14.90;4.35;;;;;;;;;;5072122;28;20484;-29
2024/02/08 11:10:42;;;;;;;17.60;4.28;;;;;;;;;;5071865;28;20059;-29
2024/02/08 11:13:10;;;;;;;17.20;3.78;;;;;;;;;;5055436;28;20379;-29
2024/02/08 11:15:39;;;;;;;15.73;3.90;;;;;;;;;;5072878;28;20063;-29
2024/02/08 11:18:05;;;;;;;22.10;5.07;;;;;;;;;;5073319;28;20415;-29
2024/02/08 11:20:42;;;;;;;29.27;7.45;;;;;;;;;;5073767;28;20025;-29
2024/02/08 11:23:45;;;;;;;12.77;4.43;;;;;;;;;;5071732;28;20460;-29
2024/02/08 11:26:11;;;;;;;23.60;4.53;;;;;;;;;;5071725;28;20368;-29
2024/02/08 11:28:54;;;;;;;13.27;5.00;;;;;;;;;;5073140;28;20021;-29
2024/02/08 11:31:21;;;;;;;17.92;4.68;;;;;;;;;;5073030;28;20514;-29
2024/02/08 11:33:49;;;;;;;19.77;4.75;;;;;;;;;;5072818;28;20020;-29
2024/02/08 11:36:21;;;;;;;18.52;4.20;;;;;;;;;;5073595;28;20035;-29
2024/02/08 11:38:53;;;;;;;17.63;4.38;;;;;;;;;;5073055;28;20086;-29
2024/02/08 11:41:20;;;;;;;15.65;5.10;;;;;;;;;;5072660;28;20009;-33
2024/02/08 11:43:48;;;;;;;20.75;5.65;;;;;;;;;;5073027;28;20078;-29
2024/02/08 11:46:18;;;;;;;16.85;4.82;;;;;;;;;;5073272;28;20120;-29
2024/02/08 11:48:43;;;;;;;21.83;5.43;;;;;;;;;;5072522;28;20029;-29
2024/02/08 11:51:09;;;;;;;16.08;4.90;;;;;;;;;;5076090;28;20025;-29
2024/02/08 11:53:35;;;;;;;31.27;5.35;;;;;;;;;;5075638;28;20024;-29
2024/02/08 11:56:07;;;;;;;15.60;5.07;;;;;;;;;;5074687;28;20025;-29
2024/02/08 11:58:35;;;;;;;19.50;5.25;;;;;;;;;;5075568;28;20013;-29
2024/02/08 12:01:03;;;;;;;16.73;4.60;;;;;;;;;;5075746;28;20017;-29
2024/02/08 12:03:28;;;;;;;13.73;4.65;;;;;;;;;;5075475;28;20428;-29
2024/02/08 12:05:54;;;;;;;29.00;5.78;;;;;;;;;;5074967;28;20051;-29
2024/02/08 12:08:23;;;;;;;17.52;4.60;;;;;;;;;;5074996;28;20047;-29
2024/02/08 12:10:49;;;;;;;19.40;5.10;;;;;;;;;;5075948;28;20032;-29
2024/02/08 12:13:25;;;;;;;16.58;4.80;;;;;;;;;;5075799;28;20143;-29
2024/02/08 12:15:55;;;;;;;15.55;4.50;;;;;;;;;;5075498;28;20025;-29
2024/02/08 12:18:21;;;;;;;14.30;4.78;;;;;;;;;;5075560;28;20017;-29
2024/02/08 12:20:55;;;;;;;17.60;4.93;;;;;;;;;;5075253;28;20020;-31
2024/02/08 12:23:23;;;;;;;21.27;4.78;;;;;;;;;;5074892;28;20099;-28
2024/02/08 12:25:53;;;;;;;15.25;4.93;;;;;;;;;;5075564;28;20409;-29
2024/02/08 12:28:18;;;;;;;18.23;4.53;;;;;;;;;;5075831;28;20032;-29
2024/02/08 12:30:44;;;;;;;17.70;4.65;;;;;;;;;;5074632;28;20037;-29
2024/02/08 12:33:10;;;;;;;17.38;4.97;;;;;;;;;;5075398;28;20444;-29
2024/02/08 12:35:44;;;;;;;12.73;4.38;;;;;;;;;;5074832;28;20099;-29
2024/02/08 12:38:11;;;;;;;17.15;4.53;;;;;;;;;;5074976;28;20444;-29
2024/02/08 12:40:37;;;;;;;15.50;4.18;;;;;;;;;;5075366;28;20009;-29
2024/02/08 12:43:07;;;;;;;14.52;4.45;;;;;;;;;;5075948;28;20073;-29
2024/02/08 12:45:33;;;;;;;13.70;3.42;;;;;;;;;;5075554;28;20024;-29
2024/02/08 12:47:59;;;;;;;13.27;3.42;;;;;;;;;;5075618;28;20016;-28
2024/02/08 12:50:25;;;;;;;9.95;3.25;;;;;;;;;;5074371;28;20020;-29
2024/02/08 12:52:57;;;;;;;11.38;2.83;;;;;;;;;;5075614;28;20025;-29
2024/02/08 12:55:29;;;;;;;12.80;2.80;;;;;;;;;;5074796;28;20052;-29
2024/02/08 12:58:04;;;;;;;9.75;2.58;;;;;;;;;;5057161;28;20020;-30
2024/02/08 13:00:33;;;;;;;9.18;3.05;;;;;;;;;;5057142;28;20012;-29
2024/02/08 13:03:05;;;;;;;11.55;2.90;;;;;;;;;;5073508;28;20024;-29
2024/02/08 13:05:40;;;;;;;17.55;3.50;;;;;;;;;;5072526;28;20036;-29
2024/02/08 13:08:08;;;;;;;7.90;2.42;;;;;;;;;;5075834;28;20108;-30
2024/02/08 13:10:34;;;;;;;9.32;2.60;;;;;;;;;;5075102;28;20020;-29
2024/02/08 13:12:59;;;;;;;7.57;2.78;;;;;;;;;;5073576;28;20487;-29
2024/02/08 13:15:25;;;;;;;12.95;2.88;;;;;;;;;;5074677;28;20056;-29
2024/02/08 13:17:50;;;;;;;9.63;2.63;;;;;;;;;;5075002;28;20012;-29
2024/02/08 13:20:16;;;;;;;10.38;2.75;;;;;;;;;;5074677;28;20023;-29
2024/02/08 13:22:44;;;;;;;8.43;2.42;;;;;;;;;;5073497;28;20380;-29
2024/02/08 13:25:12;;;;;;;8.00;2.60;;;;;;;;;;5074469;28;20051;-30
2024/02/08 13:27:39;;;;;;;9.85;3.22;;;;;;;;;;5074736;28;20472;-29
2024/02/08 13:30:25;;;;;;;11.15;3.08;;;;;;;;;;5074634;28;20410;-30
2024/02/08 13:32:51;;;;;;;6.28;2.70;;;;;;;;;;5074127;28;20020;-29
2024/02/08 13:35:19;;;;;;;11.55;2.40;;;;;;;;;;5074515;28;20051;-29
2024/02/08 13:37:46;;;;;;;7.78;3.00;;;;;;;;;;5074856;28;20085;-30
2024/02/08 13:40:11;;;;;;;12.57;3.17;;;;;;;;;;5074151;28;20054;-29
2024/02/08 13:42:38;;;;;;;10.70;3.53;;;;;;;;;;5074679;28;20016;-29
2024/02/08 13:45:04;;;;;;;10.77;3.85;;;;;;;;;;5074000;28;20020;-29
2024/02/08 13:47:29;;;;;;;7.25;3.45;;;;;;;;;;5075102;28;20452;-29
2024/02/08 13:49:55;;;;;;;13.98;3.58;;;;;;;;;;5072692;28;20028;-29
2024/02/08 13:52:20;;;;;;;14.65;4.10;;;;;;;;;;5074015;28;20024;-29
2024/02/08 13:54:48;;;;;;;10.93;3.47;;;;;;;;;;5074188;28;20479;-30
2024/02/08 13:57:14;;;;;;;9.77;3.47;;;;;;;;;;5073919;28;20070;-29
2024/02/08 13:59:46;;;;;;;9.77;3.53;;;;;;;;;;5073992;28;20526;-29
2024/02/08 14:02:13;;;;;;;8.82;4.22;;;;;;;;;;5073747;28;20016;-29
2024/02/08 14:04:39;;;;;;;11.48;3.45;;;;;;;;;;5073552;28;20112;-29
2024/02/08 14:07:04;;;;;;;9.43;3.55;;;;;;;;;;5073993;28;20032;-29
2024/02/08 14:09:32;;;;;;;8.27;3.13;;;;;;;;;;5074003;28;20016;-29
2024/02/08 14:11:58;;;;;;;10.10;3.70;;;;;;;;;;5073900;28;20052;-29
2024/02/08 14:14:31;;;;;;;12.57;3.35;;;;;;;;;;5073430;28;20021;-29
2024/02/08 14:16:58;;;;;;;8.48;3.80;;;;;;;;;;5073588;28;20017;-29
2024/02/08 14:19:33;;;;;;;8.88;4.28;;;;;;;;;;5073736;28;20012;-29
2024/02/08 14:22:05;;;;;;;10.15;4.88;;;;;;;;;;5072439;28;20037;-30
2024/02/08 14:24:35;;;;;;;11.43;4.95;;;;;;;;;;5073915;28;20009;-29
2024/02/08 14:27:05;;;;;;;12.23;4.63;;;;;;;;;;5073988;28;20024;-29
2024/02/08 14:29:30;;;;;;;14.18;4.95;;;;;;;;;;5073936;28;20088;-29
2024/02/08 14:31:55;;;;;;;12.25;4.20;;;;;;;;;;5073539;28;20101;-29
2024/02/08 14:34:25;;;;;;;9.73;4.25;;;;;;;;;;5072318;28;20108;-29
2024/02/08 14:36:50;;;;;;;11.63;4.45;;;;;;;;;;5073430;28;20024;-29
2024/02/08 14:39:26;;;;;;;17.48;7.93;;;;;;;;;;5073682;28;20025;-29
2024/02/08 14:41:53;;;;;;;12.00;5.40;;;;;;;;;;5073844;28;20351;-29
2024/02/08 14:44:18;;;;;;;9.63;4.20;;;;;;;;;;5073689;28;20031;-29
2024/02/08 14:46:46;;;;;;;8.45;4.60;;;;;;;;;;5074050;28;20119;-28
2024/02/08 14:49:23;;;;;;;7.90;3.83;;;;;;;;;;5073350;28;20024;-30
2024/02/08 14:51:48;;;;;;;7.13;3.97;;;;;;;;;;5073359;28;20470;-29
2024/02/08 14:54:13;;;;;;;11.17;3.97;;;;;;;;;;5073644;28;20031;-30
2024/02/08 14:56:41;;;;;;;11.18;3.65;;;;;;;;;;5073149;28;20302;-29
2024/02/08 15:01:42;;;;;;;7.82;3.00;;;;;;;;;;5073488;28;20368;-30
2024/02/08 15:04:15;;;;;;;7.70;3.67;;;;;;;;;;5073052;28;20013;-30
2024/02/08 15:06:42;;;;;;;5.78;2.85;;;;;;;;;;5072994;28;20056;-29
2024/02/08 15:11:57;;;;;;;8.48;2.90;;;;;;;;;;5073904;28;20040;-29
2024/02/08 15:14:35;;;;;;;5.57;2.30;;;;;;;;;;5073263;28;20453;-29
2024/02/08 15:17:07;;;;;;;5.30;2.30;;;;;;;;;;5072922;28;20122;-29
2024/02/08 15:19:33;;;;;;;6.38;2.47;;;;;;;;;;5072866;28;20117;-29
2024/02/08 15:22:03;;;;;;;7.30;2.58;;;;;;;;;;5072953;28;20017;-30
2024/02/08 15:24:29;;;;;;;4.28;2.35;;;;;;;;;;5073846;28;20346;-29
2024/02/08 15:27:07;;;;;;;7.90;2.60;;;;;;;;;;5076892;28;20024;-29
2024/02/08 15:29:36;;;;;;;4.88;2.60;;;;;;;;;;5076643;28;20259;-29
2024/02/08 15:32:17;;;;;;;8.55;2.90;;;;;;;;;;5077011;28;20456;-30
2024/02/08 15:37:31;;;;;;;7.15;2.90;;;;;;;;;;5076722;28;20035;-29
2024/02/08 15:39:58;;;;;;;4.57;2.90;;;;;;;;;;5076786;28;20452;-30
2024/02/08 15:42:35;;;;;;;6.47;3.17;;;;;;;;;;5076750;28;20112;-29
2024/02/08 15:45:01;;;;;;;8.43;3.30;;;;;;;;;;5076399;28;20048;-29
2024/02/08 15:47:29;;;;;;;6.75;3.13;;;;;;;;;;5076624;28;20074;-29
2024/02/08 15:49:54;;;;;;;6.80;3.33;;;;;;;;;;5075121;28;20102;-29
2024/02/08 15:52:22;;;;;;;6.80;3.38;;;;;;;;;;5076569;28;20051;-29
2024/02/08 15:54:55;;;;;;;5.85;3.40;;;;;;;;;;5076261;28;20037;-29
2024/02/08 15:57:23;;;;;;;5.93;3.55;;;;;;;;;;5076418;28;20515;-29
2024/02/08 15:59:52;;;;;;;7.47;3.95;;;;;;;;;;5076045;28;20088;-29
2024/02/08 16:02:21;;;;;;;9.30;3.70;;;;;;;;;;5076355;28;20383;-29
2024/02/08 16:04:49;;;;;;;9.85;4.25;;;;;;;;;;5075976;28;20033;-29
2024/02/08 16:07:15;;;;;;;6.75;3.65;;;;;;;;;;5076346;28;20365;-30
2024/02/08 16:09:45;;;;;;;8.07;4.53;;;;;;;;;;5076279;28;20099;-29
2024/02/08 16:12:22;;;;;;;7.68;4.45;;;;;;;;;;5076237;28;20035;-29
2024/02/08 16:14:48;;;;;;;7.20;4.15;;;;;;;;;;5075946;28;20507;-30
2024/02/08 16:20:05;;;;;;;6.75;4.05;;;;;;;;;;5076511;28;20082;-30
2024/02/08 16:22:37;;;;;;;6.93;3.40;;;;;;;;;;5075962;28;20512;-30
2024/02/08 16:25:03;;;;;;;8.07;3.88;;;;;;;;;;5076002;28;20066;-30
2024/02/08 16:27:28;;;;;;;5.80;3.38;;;;;;;;;;5075599;28;20020;-29
2024/02/08 16:30:07;;;;;;;8.30;4.00;;;;;;;;;;5076368;28;20016;-29
2024/02/08 16:32:38;;;;;;;5.47;2.92;;;;;;;;;;5075945;28;20507;-30
2024/02/08 16:37:51;;;;;;;4.90;3.42;;;;;;;;;;5075778;28;20063;-29
2024/02/08 16:40:29;;;;;;;4.70;2.90;;;;;;;;;;5076015;28;20104;-30
2024/02/08 16:43:01;;;;;;;4.90;3.05;;;;;;;;;;5075693;28;20070;-29
2024/02/08 16:45:35;;;;;;;4.63;3.00;;;;;;;;;;5075377;28;20047;-29
2024/02/08 16:48:14;;;;;;;5.50;3.13;;;;;;;;;;5075300;28;20057;-29
2024/02/08 16:50:46;;;;;;;6.15;3.55;;;;;;;;;;5075273;28;20035;-29
2024/02/08 16:53:14;;;;;;;6.43;3.22;;;;;;;;;;5075414;28;20028;-29
2024/02/08 16:55:47;;;;;;;5.20;3.20;;;;;;;;;;5075404;28;20028;-29
2024/02/08 16:58:28;;;;;;;5.50;3.60;;;;;;;;;;5075448;28;20367;-29
2024/02/08 17:01:02;;;;;;;6.03;3.65;;;;;;;;;;5074157;28;20095;-29
2024/02/08 17:03:50;;;;;;;5.32;3.33;;;;;;;;;;5075011;28;20021;-29
2024/02/08 17:06:18;;;;;;;5.97;3.50;;;;;;;;;;5074903;28;20453;-30